sensor_id;sensor_type;location;lat;lon;timestamp;temperature;humidity
14517;DHT22;7344;50.864;4.362;2023-01-19T00:01:46;1.90;99.90
14517;DHT22;7344;50.864;4.362;2023-01-19T00:04:11;1.90;99.90
14517;DHT22;7344;50.864;4.362;2023-01-19T00:06:37;1.90;99.90
14517;DHT22;7344;50.864;4.362;2023-01-19T00:09:03;1.80;99.90
14517;DHT22;7344;50.864;4.362;2023-01-19T00:11:28;1.80;99.90
14517;DHT22;7344;50.864;4.362;2023-01-19T00:13:54;1.90;99.90
14517;DHT22;7344;50.864;4.362;2023-01-19T00:16:20;1.90;99.90
14517;DHT22;7344;50.864;4.362;2023-01-19T00:18:48;1.90;99.90
14517;DHT22;7344;50.864;4.362;2023-01-19T00:21:15;1.90;99.90
14517;DHT22;7344;50.864;4.362;2023-01-19T00:23:41;2.00;99.90
14517;DHT22;7344;50.864;4.362;2023-01-19T00:26:08;2.00;99.90
14517;DHT22;7344;50.864;4.362;2023-01-19T00:28:35;2.10;99.90
14517;DHT22;7344;50.864;4.362;2023-01-19T00:31:03;2.10;99.90
14517;DHT22;7344;50.864;4.362;2023-01-19T00:33:29;2.10;99.90
14517;DHT22;7344;50.864;4.362;2023-01-19T00:35:54;2.20;99.90
14517;DHT22;7344;50.864;4.362;2023-01-19T00:38:20;2.20;99.90
14517;DHT22;7344;50.864;4.362;2023-01-19T00:40:47;2.20;99.90
14517;DHT22;7344;50.864;4.362;2023-01-19T00:43:12;2.30;99.90
14517;DHT22;7344;50.864;4.362;2023-01-19T00:45:38;2.20;99.90
14517;DHT22;7344;50.864;4.362;2023-01-19T00:48:07;2.30;99.90
14517;DHT22;7344;50.864;4.362;2023-01-19T00:50:33;2.20;99.90
14517;DHT22;7344;50.864;4.362;2023-01-19T00:52:59;2.20;99.90
14517;DHT22;7344;50.864;4.362;2023-01-19T00:55:26;2.20;99.90
14517;DHT22;7344;50.864;4.362;2023-01-19T00:57:54;2.20;99.90
14517;DHT22;7344;50.864;4.362;2023-01-19T01:00:21;2.20;99.90
14517;DHT22;7344;50.864;4.362;2023-01-19T01:02:48;2.10;99.90
14517;DHT22;7344;50.864;4.362;2023-01-19T01:05:13;2.10;99.90
14517;DHT22;7344;50.864;4.362;2023-01-19T01:07:40;2.10;99.90
14517;DHT22;7344;50.864;4.362;2023-01-19T01:10:11;2.10;99.90
14517;DHT22;7344;50.864;4.362;2023-01-19T01:12:37;1.90;99.90
14517;DHT22;7344;50.864;4.362;2023-01-19T01:15:05;2.00;99.90
14517;DHT22;7344;50.864;4.362;2023-01-19T01:17:31;1.90;99.90
14517;DHT22;7344;50.864;4.362;2023-01-19T01:19:57;1.90;99.90
14517;DHT22;7344;50.864;4.362;2023-01-19T01:22:23;1.90;99.90
14517;DHT22;7344;50.864;4.362;2023-01-19T01:24:48;1.80;99.90
14517;DHT22;7344;50.864;4.362;2023-01-19T01:27:14;1.80;99.90
14517;DHT22;7344;50.864;4.362;2023-01-19T01:29:39;1.80;99.90
14517;DHT22;7344;50.864;4.362;2023-01-19T01:32:07;1.80;99.90
14517;DHT22;7344;50.864;4.362;2023-01-19T01:34:33;1.80;99.90
14517;DHT22;7344;50.864;4.362;2023-01-19T01:36:59;1.70;99.90
14517;DHT22;7344;50.864;4.362;2023-01-19T01:39:24;1.70;99.90
14517;DHT22;7344;50.864;4.362;2023-01-19T01:41:50;1.70;99.90
14517;DHT22;7344;50.864;4.362;2023-01-19T01:47:17;1.60;99.90
14517;DHT22;7344;50.864;4.362;2023-01-19T01:49:46;1.60;99.90
14517;DHT22;7344;50.864;4.362;2023-01-19T01:52:13;1.60;99.90
14517;DHT22;7344;50.864;4.362;2023-01-19T01:54:40;1.60;99.90
14517;DHT22;7344;50.864;4.362;2023-01-19T01:57:07;1.50;99.90
14517;DHT22;7344;50.864;4.362;2023-01-19T01:59:42;1.60;99.90
14517;DHT22;7344;50.864;4.362;2023-01-19T02:02:16;1.60;99.90
14517;DHT22;7344;50.864;4.362;2023-01-19T02:05:10;1.60;99.90
14517;DHT22;7344;50.864;4.362;2023-01-19T02:07:45;1.60;99.90
14517;DHT22;7344;50.864;4.362;2023-01-19T02:10:30;1.60;99.90
14517;DHT22;7344;50.864;4.362;2023-01-19T02:13:15;1.60;99.90
14517;DHT22;7344;50.864;4.362;2023-01-19T02:15:45;1.60;99.90
14517;DHT22;7344;50.864;4.362;2023-01-19T02:18:11;1.50;99.90
14517;DHT22;7344;50.864;4.362;2023-01-19T02:20:38;1.50;99.90
14517;DHT22;7344;50.864;4.362;2023-01-19T02:23:15;1.50;99.90
14517;DHT22;7344;50.864;4.362;2023-01-19T02:25:43;1.50;99.90
14517;DHT22;7344;50.864;4.362;2023-01-19T02:28:09;1.50;99.90
14517;DHT22;7344;50.864;4.362;2023-01-19T02:30:36;1.50;99.90
14517;DHT22;7344;50.864;4.362;2023-01-19T02:33:04;1.40;99.90
14517;DHT22;7344;50.864;4.362;2023-01-19T02:35:30;1.50;99.90
14517;DHT22;7344;50.864;4.362;2023-01-19T02:37:56;1.50;99.90
14517;DHT22;7344;50.864;4.362;2023-01-19T02:40:23;1.50;99.90
14517;DHT22;7344;50.864;4.362;2023-01-19T02:42:51;1.60;99.90
14517;DHT22;7344;50.864;4.362;2023-01-19T02:45:20;1.60;99.90
14517;DHT22;7344;50.864;4.362;2023-01-19T02:47:49;1.60;99.90
14517;DHT22;7344;50.864;4.362;2023-01-19T02:53:35;1.70;99.90
14517;DHT22;7344;50.864;4.362;2023-01-19T03:04:48;1.60;99.90
14517;DHT22;7344;50.864;4.362;2023-01-19T03:10:50;1.60;99.90
14517;DHT22;7344;50.864;4.362;2023-01-19T03:15:49;1.60;99.90
14517;DHT22;7344;50.864;4.362;2023-01-19T03:18:21;1.60;99.90
14517;DHT22;7344;50.864;4.362;2023-01-19T03:20:50;1.60;99.90
14517;DHT22;7344;50.864;4.362;2023-01-19T03:23:19;1.70;99.90
14517;DHT22;7344;50.864;4.362;2023-01-19T03:25:47;1.70;99.90
14517;DHT22;7344;50.864;4.362;2023-01-19T03:28:16;1.80;99.90
14517;DHT22;7344;50.864;4.362;2023-01-19T03:30:45;1.80;99.90
14517;DHT22;7344;50.864;4.362;2023-01-19T03:33:16;1.90;99.90
14517;DHT22;7344;50.864;4.362;2023-01-19T03:35:48;2.00;99.90
14517;DHT22;7344;50.864;4.362;2023-01-19T03:38:16;2.00;99.90
14517;DHT22;7344;50.864;4.362;2023-01-19T03:40:44;1.90;99.90
14517;DHT22;7344;50.864;4.362;2023-01-19T03:43:13;1.90;99.90
14517;DHT22;7344;50.864;4.362;2023-01-19T03:45:41;2.00;99.90
14517;DHT22;7344;50.864;4.362;2023-01-19T03:48:07;2.10;99.90
14517;DHT22;7344;50.864;4.362;2023-01-19T03:50:33;2.20;99.90
14517;DHT22;7344;50.864;4.362;2023-01-19T03:53:10;2.20;99.90
14517;DHT22;7344;50.864;4.362;2023-01-19T03:55:38;2.20;99.90
14517;DHT22;7344;50.864;4.362;2023-01-19T03:58:05;2.30;99.90
14517;DHT22;7344;50.864;4.362;2023-01-19T04:00:31;2.20;99.90
14517;DHT22;7344;50.864;4.362;2023-01-19T04:02:57;2.30;99.90
14517;DHT22;7344;50.864;4.362;2023-01-19T04:05:23;2.20;99.90
14517;DHT22;7344;50.864;4.362;2023-01-19T04:07:50;2.20;99.90
14517;DHT22;7344;50.864;4.362;2023-01-19T04:10:17;2.10;99.90
14517;DHT22;7344;50.864;4.362;2023-01-19T04:12:43;2.20;99.90
14517;DHT22;7344;50.864;4.362;2023-01-19T04:15:09;2.20;99.90
14517;DHT22;7344;50.864;4.362;2023-01-19T04:17:35;2.20;99.90
14517;DHT22;7344;50.864;4.362;2023-01-19T04:20:00;2.10;99.90
14517;DHT22;7344;50.864;4.362;2023-01-19T04:22:26;2.20;99.90
14517;DHT22;7344;50.864;4.362;2023-01-19T04:24:52;2.10;99.90
14517;DHT22;7344;50.864;4.362;2023-01-19T04:27:17;2.00;99.90
14517;DHT22;7344;50.864;4.362;2023-01-19T04:29:43;2.00;99.90
14517;DHT22;7344;50.864;4.362;2023-01-19T04:32:09;1.90;99.90
14517;DHT22;7344;50.864;4.362;2023-01-19T04:34:35;1.90;99.90
14517;DHT22;7344;50.864;4.362;2023-01-19T04:37:00;1.90;99.90
14517;DHT22;7344;50.864;4.362;2023-01-19T04:39:26;1.90;99.90
14517;DHT22;7344;50.864;4.362;2023-01-19T04:41:52;2.00;99.90
14517;DHT22;7344;50.864;4.362;2023-01-19T04:44:18;2.00;99.90
14517;DHT22;7344;50.864;4.362;2023-01-19T04:46:43;2.00;99.90
14517;DHT22;7344;50.864;4.362;2023-01-19T04:49:09;2.10;99.90
14517;DHT22;7344;50.864;4.362;2023-01-19T04:51:35;2.20;99.90
14517;DHT22;7344;50.864;4.362;2023-01-19T04:54:01;2.10;99.90
14517;DHT22;7344;50.864;4.362;2023-01-19T04:56:27;2.10;99.90
14517;DHT22;7344;50.864;4.362;2023-01-19T04:58:53;2.00;99.90
14517;DHT22;7344;50.864;4.362;2023-01-19T05:01:19;2.00;99.90
14517;DHT22;7344;50.864;4.362;2023-01-19T05:03:45;2.00;99.90
14517;DHT22;7344;50.864;4.362;2023-01-19T05:06:10;2.00;99.90
14517;DHT22;7344;50.864;4.362;2023-01-19T05:08:36;1.90;99.90
14517;DHT22;7344;50.864;4.362;2023-01-19T05:11:02;1.80;99.90
14517;DHT22;7344;50.864;4.362;2023-01-19T05:13:28;1.90;99.90
14517;DHT22;7344;50.864;4.362;2023-01-19T05:15:53;1.90;99.90
14517;DHT22;7344;50.864;4.362;2023-01-19T05:18:19;1.90;99.90
14517;DHT22;7344;50.864;4.362;2023-01-19T05:20:45;2.00;99.90
14517;DHT22;7344;50.864;4.362;2023-01-19T05:23:10;1.90;99.90
14517;DHT22;7344;50.864;4.362;2023-01-19T05:25:36;1.90;99.90
14517;DHT22;7344;50.864;4.362;2023-01-19T05:28:01;1.90;99.90
14517;DHT22;7344;50.864;4.362;2023-01-19T05:30:27;1.90;99.90
14517;DHT22;7344;50.864;4.362;2023-01-19T05:32:53;1.90;99.90
14517;DHT22;7344;50.864;4.362;2023-01-19T05:35:19;1.90;99.90
14517;DHT22;7344;50.864;4.362;2023-01-19T05:37:44;1.90;99.90
14517;DHT22;7344;50.864;4.362;2023-01-19T05:40:10;1.80;99.90
14517;DHT22;7344;50.864;4.362;2023-01-19T05:42:36;1.80;99.90
14517;DHT22;7344;50.864;4.362;2023-01-19T05:45:02;1.70;99.90
14517;DHT22;7344;50.864;4.362;2023-01-19T05:47:28;1.70;99.90
14517;DHT22;7344;50.864;4.362;2023-01-19T05:49:54;1.70;99.90
14517;DHT22;7344;50.864;4.362;2023-01-19T05:52:20;1.80;99.90
14517;DHT22;7344;50.864;4.362;2023-01-19T05:54:46;1.70;99.90
14517;DHT22;7344;50.864;4.362;2023-01-19T05:57:13;1.70;99.90
14517;DHT22;7344;50.864;4.362;2023-01-19T05:59:39;1.70;99.90
14517;DHT22;7344;50.864;4.362;2023-01-19T06:02:05;1.70;99.90
14517;DHT22;7344;50.864;4.362;2023-01-19T06:04:31;1.70;99.90
14517;DHT22;7344;50.864;4.362;2023-01-19T06:06:56;1.60;99.90
14517;DHT22;7344;50.864;4.362;2023-01-19T06:09:22;1.70;99.90
14517;DHT22;7344;50.864;4.362;2023-01-19T06:11:48;1.70;99.90
14517;DHT22;7344;50.864;4.362;2023-01-19T06:14:13;1.70;99.90
14517;DHT22;7344;50.864;4.362;2023-01-19T06:16:39;1.70;99.90
14517;DHT22;7344;50.864;4.362;2023-01-19T06:19:05;1.70;99.90
14517;DHT22;7344;50.864;4.362;2023-01-19T06:21:30;1.70;99.90
14517;DHT22;7344;50.864;4.362;2023-01-19T06:23:57;1.80;99.90
14517;DHT22;7344;50.864;4.362;2023-01-19T06:26:23;1.80;99.90
14517;DHT22;7344;50.864;4.362;2023-01-19T06:28:50;1.80;99.90
14517;DHT22;7344;50.864;4.362;2023-01-19T06:31:16;1.70;99.90
14517;DHT22;7344;50.864;4.362;2023-01-19T06:33:42;1.70;99.90
14517;DHT22;7344;50.864;4.362;2023-01-19T06:36:08;1.80;99.90
14517;DHT22;7344;50.864;4.362;2023-01-19T06:38:33;1.80;99.90
14517;DHT22;7344;50.864;4.362;2023-01-19T06:40:59;1.80;99.90
14517;DHT22;7344;50.864;4.362;2023-01-19T06:43:27;1.80;99.90
14517;DHT22;7344;50.864;4.362;2023-01-19T06:45:53;1.90;99.90
14517;DHT22;7344;50.864;4.362;2023-01-19T06:48:19;1.90;99.90
14517;DHT22;7344;50.864;4.362;2023-01-19T06:50:45;2.00;99.90
14517;DHT22;7344;50.864;4.362;2023-01-19T06:53:11;2.20;99.90
14517;DHT22;7344;50.864;4.362;2023-01-19T06:55:39;2.20;99.90
14517;DHT22;7344;50.864;4.362;2023-01-19T06:58:05;2.20;99.90
14517;DHT22;7344;50.864;4.362;2023-01-19T07:00:31;2.20;99.90
14517;DHT22;7344;50.864;4.362;2023-01-19T07:02:56;2.20;99.90
14517;DHT22;7344;50.864;4.362;2023-01-19T07:05:22;2.30;99.90
14517;DHT22;7344;50.864;4.362;2023-01-19T07:07:52;2.20;99.90
14517;DHT22;7344;50.864;4.362;2023-01-19T07:10:18;2.20;99.90
14517;DHT22;7344;50.864;4.362;2023-01-19T07:12:44;2.30;99.90
14517;DHT22;7344;50.864;4.362;2023-01-19T07:15:12;2.30;99.90
14517;DHT22;7344;50.864;4.362;2023-01-19T07:17:38;2.20;99.90
14517;DHT22;7344;50.864;4.362;2023-01-19T07:20:06;2.20;99.90
14517;DHT22;7344;50.864;4.362;2023-01-19T07:22:32;2.20;99.90
14517;DHT22;7344;50.864;4.362;2023-01-19T07:24:58;2.20;99.90
14517;DHT22;7344;50.864;4.362;2023-01-19T07:27:25;2.10;99.90
14517;DHT22;7344;50.864;4.362;2023-01-19T07:29:52;2.10;99.90
14517;DHT22;7344;50.864;4.362;2023-01-19T07:32:17;2.10;99.90
14517;DHT22;7344;50.864;4.362;2023-01-19T07:34:43;2.10;99.90
14517;DHT22;7344;50.864;4.362;2023-01-19T07:37:09;2.00;99.90
14517;DHT22;7344;50.864;4.362;2023-01-19T07:39:35;2.20;99.90
14517;DHT22;7344;50.864;4.362;2023-01-19T07:42:01;2.00;99.90
14517;DHT22;7344;50.864;4.362;2023-01-19T07:44:26;2.10;99.90
14517;DHT22;7344;50.864;4.362;2023-01-19T07:46:52;2.20;99.90
14517;DHT22;7344;50.864;4.362;2023-01-19T07:49:17;2.20;99.90
14517;DHT22;7344;50.864;4.362;2023-01-19T07:51:45;2.20;99.90
14517;DHT22;7344;50.864;4.362;2023-01-19T07:54:11;2.20;99.90
14517;DHT22;7344;50.864;4.362;2023-01-19T07:56:36;2.10;99.90
14517;DHT22;7344;50.864;4.362;2023-01-19T07:59:05;2.00;99.90
14517;DHT22;7344;50.864;4.362;2023-01-19T08:01:33;2.00;99.90
14517;DHT22;7344;50.864;4.362;2023-01-19T08:03:59;2.10;99.90
14517;DHT22;7344;50.864;4.362;2023-01-19T08:06:35;2.10;99.90
14517;DHT22;7344;50.864;4.362;2023-01-19T08:09:02;2.10;99.90
14517;DHT22;7344;50.864;4.362;2023-01-19T08:11:32;2.20;99.90
14517;DHT22;7344;50.864;4.362;2023-01-19T08:13:58;2.30;99.90
14517;DHT22;7344;50.864;4.362;2023-01-19T08:16:25;2.40;99.90
14517;DHT22;7344;50.864;4.362;2023-01-19T08:18:54;2.40;99.90
14517;DHT22;7344;50.864;4.362;2023-01-19T08:21:20;2.60;99.90
14517;DHT22;7344;50.864;4.362;2023-01-19T08:23:56;2.50;99.90
14517;DHT22;7344;50.864;4.362;2023-01-19T08:26:26;2.60;99.90
14517;DHT22;7344;50.864;4.362;2023-01-19T08:28:53;2.50;99.90
14517;DHT22;7344;50.864;4.362;2023-01-19T08:31:40;2.50;99.90
14517;DHT22;7344;50.864;4.362;2023-01-19T08:34:05;2.60;99.90
14517;DHT22;7344;50.864;4.362;2023-01-19T08:36:30;2.50;99.90
14517;DHT22;7344;50.864;4.362;2023-01-19T08:38:56;2.50;99.90
14517;DHT22;7344;50.864;4.362;2023-01-19T08:41:22;2.60;99.90
14517;DHT22;7344;50.864;4.362;2023-01-19T08:43:48;2.60;99.90
14517;DHT22;7344;50.864;4.362;2023-01-19T08:46:14;2.50;99.90
14517;DHT22;7344;50.864;4.362;2023-01-19T08:48:42;2.60;99.90
14517;DHT22;7344;50.864;4.362;2023-01-19T08:51:10;2.50;99.90
14517;DHT22;7344;50.864;4.362;2023-01-19T08:53:35;2.60;99.90
14517;DHT22;7344;50.864;4.362;2023-01-19T08:56:01;2.70;99.90
14517;DHT22;7344;50.864;4.362;2023-01-19T08:58:27;2.70;99.90
14517;DHT22;7344;50.864;4.362;2023-01-19T09:00:53;2.70;99.90
14517;DHT22;7344;50.864;4.362;2023-01-19T09:03:20;2.80;99.90
14517;DHT22;7344;50.864;4.362;2023-01-19T09:05:48;2.80;99.90
14517;DHT22;7344;50.864;4.362;2023-01-19T09:08:15;2.70;99.90
14517;DHT22;7344;50.864;4.362;2023-01-19T09:10:46;2.70;99.90
14517;DHT22;7344;50.864;4.362;2023-01-19T09:13:13;2.80;99.90
14517;DHT22;7344;50.864;4.362;2023-01-19T09:15:43;2.80;99.90
14517;DHT22;7344;50.864;4.362;2023-01-19T09:18:12;2.90;99.90
14517;DHT22;7344;50.864;4.362;2023-01-19T09:20:42;2.90;99.90
14517;DHT22;7344;50.864;4.362;2023-01-19T09:23:13;2.90;99.90
14517;DHT22;7344;50.864;4.362;2023-01-19T09:25:40;3.00;99.90
14517;DHT22;7344;50.864;4.362;2023-01-19T09:28:07;3.10;99.90
14517;DHT22;7344;50.864;4.362;2023-01-19T09:30:37;3.00;99.90
14517;DHT22;7344;50.864;4.362;2023-01-19T09:33:10;3.10;99.90
14517;DHT22;7344;50.864;4.362;2023-01-19T09:35:37;3.20;99.90
14517;DHT22;7344;50.864;4.362;2023-01-19T09:38:03;3.10;99.90
14517;DHT22;7344;50.864;4.362;2023-01-19T09:40:29;3.10;99.90
14517;DHT22;7344;50.864;4.362;2023-01-19T09:42:56;3.30;99.90
14517;DHT22;7344;50.864;4.362;2023-01-19T09:45:35;3.10;99.90
14517;DHT22;7344;50.864;4.362;2023-01-19T09:48:27;3.00;99.90
14517;DHT22;7344;50.864;4.362;2023-01-19T09:50:59;3.10;99.90
14517;DHT22;7344;50.864;4.362;2023-01-19T09:53:51;3.20;99.90
14517;DHT22;7344;50.864;4.362;2023-01-19T09:56:20;3.10;99.90
14517;DHT22;7344;50.864;4.362;2023-01-19T09:58:47;3.20;99.90
14517;DHT22;7344;50.864;4.362;2023-01-19T10:10:11;3.60;99.90
14517;DHT22;7344;50.864;4.362;2023-01-19T10:18:24;3.60;99.90
14517;DHT22;7344;50.864;4.362;2023-01-19T10:21:05;3.40;99.90
14517;DHT22;7344;50.864;4.362;2023-01-19T10:26:49;3.20;99.90
14517;DHT22;7344;50.864;4.362;2023-01-19T10:32:30;3.10;99.90
14517;DHT22;7344;50.864;4.362;2023-01-19T10:34:58;3.20;99.90
14517;DHT22;7344;50.864;4.362;2023-01-19T10:37:30;3.20;99.90
14517;DHT22;7344;50.864;4.362;2023-01-19T10:42:36;3.30;99.90
14517;DHT22;7344;50.864;4.362;2023-01-19T10:45:03;3.30;99.90
14517;DHT22;7344;50.864;4.362;2023-01-19T10:47:36;3.40;99.90
14517;DHT22;7344;50.864;4.362;2023-01-19T10:50:36;3.50;99.90
14517;DHT22;7344;50.864;4.362;2023-01-19T10:53:21;3.50;99.90
14517;DHT22;7344;50.864;4.362;2023-01-19T10:55:47;3.40;99.90
14517;DHT22;7344;50.864;4.362;2023-01-19T10:58:34;3.50;99.90
14517;DHT22;7344;50.864;4.362;2023-01-19T11:03:39;3.30;99.90
14517;DHT22;7344;50.864;4.362;2023-01-19T11:08:40;3.40;99.90
14517;DHT22;7344;50.864;4.362;2023-01-19T11:11:06;3.40;99.90
14517;DHT22;7344;50.864;4.362;2023-01-19T11:13:34;3.40;99.90
14517;DHT22;7344;50.864;4.362;2023-01-19T11:16:13;3.30;99.90
14517;DHT22;7344;50.864;4.362;2023-01-19T11:18:41;3.10;99.90
14517;DHT22;7344;50.864;4.362;2023-01-19T11:21:13;3.10;99.90
14517;DHT22;7344;50.864;4.362;2023-01-19T11:23:53;3.20;99.90
14517;DHT22;7344;50.864;4.362;2023-01-19T11:26:26;3.20;99.90
14517;DHT22;7344;50.864;4.362;2023-01-19T11:28:54;3.30;99.90
14517;DHT22;7344;50.864;4.362;2023-01-19T11:34:00;3.30;99.90
14517;DHT22;7344;50.864;4.362;2023-01-19T11:37:00;3.30;99.90
14517;DHT22;7344;50.864;4.362;2023-01-19T11:39:31;3.30;99.90
14517;DHT22;7344;50.864;4.362;2023-01-19T11:42:00;3.40;99.90
14517;DHT22;7344;50.864;4.362;2023-01-19T11:44:29;3.30;99.90
14517;DHT22;7344;50.864;4.362;2023-01-19T11:47:03;3.30;99.90
14517;DHT22;7344;50.864;4.362;2023-01-19T11:52:20;3.50;99.90
14517;DHT22;7344;50.864;4.362;2023-01-19T11:57:35;3.40;99.90
14517;DHT22;7344;50.864;4.362;2023-01-19T12:00:22;3.40;99.90
14517;DHT22;7344;50.864;4.362;2023-01-19T12:02:53;3.50;99.90
14517;DHT22;7344;50.864;4.362;2023-01-19T12:05:20;3.40;99.90
14517;DHT22;7344;50.864;4.362;2023-01-19T12:07:48;3.30;99.90
14517;DHT22;7344;50.864;4.362;2023-01-19T12:10:37;3.40;99.90
14517;DHT22;7344;50.864;4.362;2023-01-19T12:13:09;3.60;99.90
14517;DHT22;7344;50.864;4.362;2023-01-19T12:15:41;3.60;99.90
14517;DHT22;7344;50.864;4.362;2023-01-19T12:18:17;3.80;99.90
14517;DHT22;7344;50.864;4.362;2023-01-19T12:20:47;3.90;99.90
14517;DHT22;7344;50.864;4.362;2023-01-19T12:23:28;4.00;99.90
14517;DHT22;7344;50.864;4.362;2023-01-19T12:28:47;4.20;99.90
14517;DHT22;7344;50.864;4.362;2023-01-19T12:31:19;4.30;99.90
14517;DHT22;7344;50.864;4.362;2023-01-19T12:33:46;4.30;99.90
14517;DHT22;7344;50.864;4.362;2023-01-19T12:39:16;4.30;99.90
14517;DHT22;7344;50.864;4.362;2023-01-19T12:41:43;4.20;99.90
14517;DHT22;7344;50.864;4.362;2023-01-19T12:44:14;4.20;99.90
14517;DHT22;7344;50.864;4.362;2023-01-19T12:46:55;4.30;99.90
14517;DHT22;7344;50.864;4.362;2023-01-19T12:49:31;4.30;99.90
14517;DHT22;7344;50.864;4.362;2023-01-19T12:52:29;4.50;99.90
14517;DHT22;7344;50.864;4.362;2023-01-19T13:00:02;4.30;99.90
14517;DHT22;7344;50.864;4.362;2023-01-19T13:02:41;4.40;99.90
14517;DHT22;7344;50.864;4.362;2023-01-19T13:21:46;4.50;99.90
14517;DHT22;7344;50.864;4.362;2023-01-19T13:24:20;4.80;99.90
14517;DHT22;7344;50.864;4.362;2023-01-19T13:29:34;4.80;99.90
14517;DHT22;7344;50.864;4.362;2023-01-19T13:32:05;4.90;99.90
14517;DHT22;7344;50.864;4.362;2023-01-19T13:34:40;5.00;99.90
14517;DHT22;7344;50.864;4.362;2023-01-19T13:37:15;5.10;99.90
14517;DHT22;7344;50.864;4.362;2023-01-19T13:39:42;5.20;99.90
14517;DHT22;7344;50.864;4.362;2023-01-19T13:42:36;5.30;99.90
14517;DHT22;7344;50.864;4.362;2023-01-19T13:47:38;5.40;99.90
14517;DHT22;7344;50.864;4.362;2023-01-19T13:50:13;5.40;99.90
14517;DHT22;7344;50.864;4.362;2023-01-19T13:52:42;5.40;99.90
14517;DHT22;7344;50.864;4.362;2023-01-19T13:55:12;5.60;99.90
14517;DHT22;7344;50.864;4.362;2023-01-19T13:57:40;5.60;99.90
14517;DHT22;7344;50.864;4.362;2023-01-19T14:05:34;5.30;99.90
14517;DHT22;7344;50.864;4.362;2023-01-19T14:10:26;5.20;99.90
14517;DHT22;7344;50.864;4.362;2023-01-19T14:13:20;5.20;99.90
14517;DHT22;7344;50.864;4.362;2023-01-19T14:15:48;5.10;99.90
14517;DHT22;7344;50.864;4.362;2023-01-19T14:26:49;4.90;99.90
14517;DHT22;7344;50.864;4.362;2023-01-19T14:29:27;4.80;99.90
14517;DHT22;7344;50.864;4.362;2023-01-19T14:36:55;4.80;99.90
14517;DHT22;7344;50.864;4.362;2023-01-19T14:39:24;4.80;99.90
14517;DHT22;7344;50.864;4.362;2023-01-19T14:41:51;4.80;99.90
14517;DHT22;7344;50.864;4.362;2023-01-19T14:44:30;4.80;99.90
14517;DHT22;7344;50.864;4.362;2023-01-19T14:46:57;4.80;99.90
14517;DHT22;7344;50.864;4.362;2023-01-19T14:49:38;4.80;99.90
14517;DHT22;7344;50.864;4.362;2023-01-19T14:52:15;4.70;99.90
14517;DHT22;7344;50.864;4.362;2023-01-19T14:54:42;4.70;99.90
14517;DHT22;7344;50.864;4.362;2023-01-19T14:57:12;4.80;99.90
14517;DHT22;7344;50.864;4.362;2023-01-19T14:59:39;4.70;99.90
14517;DHT22;7344;50.864;4.362;2023-01-19T15:02:05;4.70;99.90
14517;DHT22;7344;50.864;4.362;2023-01-19T15:04:30;4.70;99.90
14517;DHT22;7344;50.864;4.362;2023-01-19T15:06:56;4.70;99.90
14517;DHT22;7344;50.864;4.362;2023-01-19T15:09:22;4.60;99.90
14517;DHT22;7344;50.864;4.362;2023-01-19T15:11:49;4.50;99.90
14517;DHT22;7344;50.864;4.362;2023-01-19T15:14:17;4.50;99.90
14517;DHT22;7344;50.864;4.362;2023-01-19T15:16:43;4.40;99.90
14517;DHT22;7344;50.864;4.362;2023-01-19T15:19:11;4.40;99.90
14517;DHT22;7344;50.864;4.362;2023-01-19T15:21:36;4.30;99.90
14517;DHT22;7344;50.864;4.362;2023-01-19T15:24:09;4.20;99.90
14517;DHT22;7344;50.864;4.362;2023-01-19T15:26:36;4.20;99.90
14517;DHT22;7344;50.864;4.362;2023-01-19T15:29:08;4.20;99.90
14517;DHT22;7344;50.864;4.362;2023-01-19T15:31:35;4.10;99.90
14517;DHT22;7344;50.864;4.362;2023-01-19T15:34:00;4.00;99.90
14517;DHT22;7344;50.864;4.362;2023-01-19T15:36:26;3.90;99.90
14517;DHT22;7344;50.864;4.362;2023-01-19T15:38:51;3.90;99.90
14517;DHT22;7344;50.864;4.362;2023-01-19T15:41:27;3.80;99.90
14517;DHT22;7344;50.864;4.362;2023-01-19T15:43:57;3.80;99.90
14517;DHT22;7344;50.864;4.362;2023-01-19T15:46:26;3.80;99.90
14517;DHT22;7344;50.864;4.362;2023-01-19T15:48:52;3.70;99.90
14517;DHT22;7344;50.864;4.362;2023-01-19T15:51:20;3.70;99.90
14517;DHT22;7344;50.864;4.362;2023-01-19T15:53:48;3.60;99.90
14517;DHT22;7344;50.864;4.362;2023-01-19T15:56:22;3.60;99.90
14517;DHT22;7344;50.864;4.362;2023-01-19T15:58:49;3.70;99.90
14517;DHT22;7344;50.864;4.362;2023-01-19T16:01:18;3.70;99.90
14517;DHT22;7344;50.864;4.362;2023-01-19T16:03:45;3.60;99.90
14517;DHT22;7344;50.864;4.362;2023-01-19T16:06:10;3.60;99.90
14517;DHT22;7344;50.864;4.362;2023-01-19T16:08:37;3.60;99.90
14517;DHT22;7344;50.864;4.362;2023-01-19T16:11:07;3.60;99.90
14517;DHT22;7344;50.864;4.362;2023-01-19T16:13:33;3.50;99.90
14517;DHT22;7344;50.864;4.362;2023-01-19T16:16:03;3.40;99.90
14517;DHT22;7344;50.864;4.362;2023-01-19T16:18:30;3.40;99.90
14517;DHT22;7344;50.864;4.362;2023-01-19T16:20:55;3.40;99.90
14517;DHT22;7344;50.864;4.362;2023-01-19T16:23:21;3.40;99.90
14517;DHT22;7344;50.864;4.362;2023-01-19T16:25:58;3.30;99.90
14517;DHT22;7344;50.864;4.362;2023-01-19T16:28:25;3.30;99.90
14517;DHT22;7344;50.864;4.362;2023-01-19T16:30:51;3.30;99.90
14517;DHT22;7344;50.864;4.362;2023-01-19T16:33:17;3.10;99.90
14517;DHT22;7344;50.864;4.362;2023-01-19T16:35:43;3.00;99.90
14517;DHT22;7344;50.864;4.362;2023-01-19T16:38:08;3.10;99.90
14517;DHT22;7344;50.864;4.362;2023-01-19T16:40:34;3.10;99.90
14517;DHT22;7344;50.864;4.362;2023-01-19T16:43:00;3.00;99.90
14517;DHT22;7344;50.864;4.362;2023-01-19T16:45:25;3.00;99.90
14517;DHT22;7344;50.864;4.362;2023-01-19T16:47:51;3.00;99.90
14517;DHT22;7344;50.864;4.362;2023-01-19T16:50:17;3.00;99.90
14517;DHT22;7344;50.864;4.362;2023-01-19T16:52:43;3.00;99.90
14517;DHT22;7344;50.864;4.362;2023-01-19T16:55:09;3.00;99.90
14517;DHT22;7344;50.864;4.362;2023-01-19T16:57:38;3.00;99.90
14517;DHT22;7344;50.864;4.362;2023-01-19T17:00:05;2.90;99.90
14517;DHT22;7344;50.864;4.362;2023-01-19T17:02:31;3.00;99.90
14517;DHT22;7344;50.864;4.362;2023-01-19T17:04:57;2.90;99.90
14517;DHT22;7344;50.864;4.362;2023-01-19T17:07:26;2.90;99.90
14517;DHT22;7344;50.864;4.362;2023-01-19T17:09:52;2.90;99.90
14517;DHT22;7344;50.864;4.362;2023-01-19T17:12:17;2.80;99.90
14517;DHT22;7344;50.864;4.362;2023-01-19T17:14:43;2.90;99.90
14517;DHT22;7344;50.864;4.362;2023-01-19T17:17:12;2.80;99.90
14517;DHT22;7344;50.864;4.362;2023-01-19T17:19:37;2.80;99.90
14517;DHT22;7344;50.864;4.362;2023-01-19T17:22:04;2.80;99.90
14517;DHT22;7344;50.864;4.362;2023-01-19T17:24:30;2.70;99.90
14517;DHT22;7344;50.864;4.362;2023-01-19T17:26:56;2.70;99.90
14517;DHT22;7344;50.864;4.362;2023-01-19T17:29:22;2.70;99.90
14517;DHT22;7344;50.864;4.362;2023-01-19T17:31:51;2.70;99.90
14517;DHT22;7344;50.864;4.362;2023-01-19T17:34:16;2.80;99.90
14517;DHT22;7344;50.864;4.362;2023-01-19T17:36:42;2.70;99.90
14517;DHT22;7344;50.864;4.362;2023-01-19T17:39:10;2.70;99.90
14517;DHT22;7344;50.864;4.362;2023-01-19T17:41:39;2.80;99.90
14517;DHT22;7344;50.864;4.362;2023-01-19T17:44:05;2.80;99.90
14517;DHT22;7344;50.864;4.362;2023-01-19T17:46:34;2.70;99.90
14517;DHT22;7344;50.864;4.362;2023-01-19T17:49:02;2.70;99.90
14517;DHT22;7344;50.864;4.362;2023-01-19T17:51:29;2.70;99.90
14517;DHT22;7344;50.864;4.362;2023-01-19T17:53:55;2.70;99.90
14517;DHT22;7344;50.864;4.362;2023-01-19T17:56:23;2.70;99.90
14517;DHT22;7344;50.864;4.362;2023-01-19T17:58:54;2.60;99.90
14517;DHT22;7344;50.864;4.362;2023-01-19T18:01:25;2.60;99.90
14517;DHT22;7344;50.864;4.362;2023-01-19T18:03:51;2.60;99.90